createdAt,value
2024-03-24T00:00:39.213Z,109.87
2024-03-24T00:01:39.266Z,113.43
2024-03-24T00:02:39.310Z,112.31
2024-03-24T00:03:39.345Z,111.27
2024-03-24T00:04:39.865Z,107.96
2024-03-24T00:05:39.442Z,108.22
2024-03-24T00:06:39.466Z,110.51
2024-03-24T00:07:39.520Z,108.58
2024-03-24T00:08:39.548Z,108.74
2024-03-24T00:09:39.583Z,106.83
2024-03-24T00:10:39.615Z,109.93
2024-03-24T00:11:39.646Z,108.57
2024-03-24T00:12:39.702Z,104.73
2024-03-24T00:13:39.695Z,105.79
2024-03-24T00:14:39.728Z,107.64
2024-03-24T00:15:39.771Z,106.27
2024-03-24T00:16:39.818Z,106.33
2024-03-24T00:17:39.849Z,110.20
2024-03-24T00:18:39.925Z,106.68
2024-03-24T00:19:39.962Z,108.06
2024-03-24T00:20:39.985Z,107.58
2024-03-24T00:21:40.030Z,106.29
2024-03-24T00:22:40.065Z,108.13
2024-03-24T00:23:40.102Z,106.84
2024-03-24T00:24:40.131Z,108.97
2024-03-24T00:25:40.181Z,108.68
2024-03-24T00:26:40.243Z,108.04
2024-03-24T00:27:40.288Z,109.63
2024-03-24T00:28:40.352Z,111.03
2024-03-24T00:29:40.407Z,108.17
2024-03-24T00:30:40.455Z,108.55
2024-03-24T00:31:40.520Z,109.50
2024-03-24T00:32:40.568Z,109.03
2024-03-24T00:33:40.668Z,106.43
2024-03-24T00:34:40.670Z,106.51
2024-03-24T00:35:40.715Z,105.59
2024-03-24T00:36:40.747Z,110.27
2024-03-24T00:37:40.792Z,108.61
2024-03-24T00:38:40.833Z,110.19
2024-03-24T00:39:43.365Z,111.12
2024-03-24T00:40:40.888Z,111.21
2024-03-24T00:41:40.908Z,111.61
2024-03-24T00:42:40.890Z,112.10
2024-03-24T00:43:40.889Z,111.75
2024-03-24T00:44:40.907Z,113.42
2024-03-24T00:45:40.896Z,112.46
2024-03-24T00:46:40.897Z,110.23
2024-03-24T00:47:40.897Z,108.14
2024-03-24T00:48:40.900Z,110.83
2024-03-24T00:49:40.900Z,115.89
2024-03-24T00:50:40.908Z,115.61
2024-03-24T00:51:40.919Z,114.12
2024-03-24T00:52:40.906Z,116.68
2024-03-24T00:53:40.905Z,114.21
2024-03-24T00:54:40.919Z,113.90
2024-03-24T00:55:40.916Z,114.21
2024-03-24T00:56:40.913Z,112.28
2024-03-24T00:57:40.904Z,115.30
2024-03-24T00:58:40.907Z,112.81
2024-03-24T00:59:40.904Z,112.80
2024-03-24T01:00:40.912Z,110.87
2024-03-24T01:01:40.926Z,110.37
2024-03-24T01:02:40.957Z,113.46
2024-03-24T01:03:40.918Z,115.12
2024-03-24T01:04:40.927Z,115.89
2024-03-24T01:05:40.918Z,113.90
2024-03-24T01:06:40.925Z,117.46
2024-03-24T01:07:40.914Z,116.88
2024-03-24T01:08:40.964Z,115.20
2024-03-24T01:09:40.998Z,113.50
2024-03-24T01:10:41.044Z,114.47
2024-03-24T01:11:41.058Z,115.39
2024-03-24T01:12:41.093Z,117.62
2024-03-24T01:13:41.114Z,116.58
2024-03-24T01:14:41.164Z,120.32
2024-03-24T01:15:41.192Z,117.95
2024-03-24T01:16:41.220Z,121.64
2024-03-24T01:17:41.275Z,118.38
2024-03-24T01:18:41.311Z,118.29
2024-03-24T01:19:41.359Z,119.49
2024-03-24T01:20:41.393Z,119.35
2024-03-24T01:21:41.441Z,117.62
2024-03-24T01:22:41.494Z,118.28
2024-03-24T01:23:41.521Z,116.10
2024-03-24T01:24:41.545Z,117.28
2024-03-24T01:25:41.570Z,115.74
2024-03-24T01:26:41.614Z,116.21
2024-03-24T01:27:41.685Z,116.89
2024-03-24T01:28:41.675Z,114.45
2024-03-24T01:29:41.712Z,115.49
2024-03-24T01:30:41.768Z,114.97
2024-03-24T01:31:41.802Z,112.53
2024-03-24T01:32:41.852Z,114.63
2024-03-24T01:33:41.905Z,113.52
2024-03-24T01:34:41.951Z,112.17
2024-03-24T01:35:41.994Z,114.47
2024-03-24T01:36:42.053Z,111.35
2024-03-24T01:37:42.095Z,112.62
2024-03-24T01:38:42.148Z,114.15
2024-03-24T01:39:42.190Z,113.02
2024-03-24T01:40:42.227Z,112.20
2024-03-24T01:41:42.249Z,110.61
2024-03-24T01:42:42.276Z,112.80
2024-03-24T01:43:42.296Z,110.55
2024-03-24T01:44:42.349Z,110.13
2024-03-24T01:45:42.388Z,108.23
2024-03-24T01:46:42.423Z,110.79
2024-03-24T01:47:42.454Z,105.81
2024-03-24T01:48:42.500Z,110.16
2024-03-24T01:49:42.542Z,108.87
2024-03-24T01:50:42.542Z,107.06
2024-03-24T01:51:42.573Z,107.38
2024-03-24T01:52:42.611Z,105.28
2024-03-24T01:53:42.643Z,106.26
2024-03-24T01:54:42.746Z,104.30
2024-03-24T01:55:42.739Z,102.84
2024-03-24T01:56:42.758Z,104.32
2024-03-24T01:57:42.786Z,107.86
2024-03-24T01:58:42.795Z,106.17
2024-03-24T01:59:42.821Z,102.91
2024-03-24T02:00:42.865Z,103.94
2024-03-24T02:01:42.892Z,102.23
2024-03-24T02:02:42.953Z,103.47
2024-03-24T02:03:42.977Z,104.73
2024-03-24T02:04:42.996Z,103.48
2024-03-24T02:05:43.041Z,104.33
2024-03-24T02:06:43.130Z,101.58
2024-03-24T02:07:43.118Z,104.78
2024-03-24T02:08:43.157Z,103.19
2024-03-24T02:09:43.190Z,102.48
2024-03-24T02:10:43.262Z,102.32
2024-03-24T02:11:43.285Z,103.75
2024-03-24T02:12:43.338Z,102.03
2024-03-24T02:13:43.399Z,104.56
2024-03-24T02:14:43.457Z,101.48
2024-03-24T02:15:43.519Z,103.16
2024-03-24T02:16:43.548Z,103.62
2024-03-24T02:17:43.585Z,102.91
2024-03-24T02:18:44.659Z,101.96
2024-03-24T02:19:43.648Z,102.54
2024-03-24T02:20:43.646Z,101.56
2024-03-24T02:21:43.633Z,101.34
2024-03-24T02:22:43.630Z,99.30
2024-03-24T02:23:43.641Z,100.45
2024-03-24T02:24:43.655Z,101.52
2024-03-24T02:25:43.651Z,105.49
2024-03-24T02:26:43.684Z,103.44
2024-03-24T02:27:43.637Z,104.02
2024-03-24T02:28:43.664Z,102.56
2024-03-24T02:29:43.657Z,104.85
2024-03-24T02:30:43.648Z,104.22
2024-03-24T02:31:43.648Z,106.72
2024-03-24T02:32:43.656Z,106.39
2024-03-24T02:33:43.669Z,105.02
2024-03-24T02:34:43.652Z,104.26
2024-03-24T02:35:43.645Z,107.52
2024-03-24T02:36:43.650Z,111.79
2024-03-24T02:37:43.672Z,110.53
2024-03-24T02:38:43.685Z,109.58
2024-03-24T02:39:43.649Z,108.93
2024-03-24T02:40:45.197Z,109.62
2024-03-24T02:41:43.662Z,109.78
2024-03-24T02:42:43.667Z,109.92
2024-03-24T02:43:43.662Z,111.46
2024-03-24T02:44:43.662Z,111.72
2024-03-24T02:45:43.657Z,115.48
2024-03-24T02:46:43.689Z,115.71
2024-03-24T02:47:43.688Z,116.92
2024-03-24T02:48:43.686Z,114.71
2024-03-24T02:49:43.667Z,117.47
2024-03-24T02:50:43.699Z,117.83
2024-03-24T02:51:43.677Z,119.16
2024-03-24T02:52:43.662Z,117.10
2024-03-24T02:53:43.671Z,117.81
2024-03-24T02:54:43.669Z,117.48
2024-03-24T02:55:43.674Z,117.24
2024-03-24T02:56:43.681Z,119.78
2024-03-24T02:57:43.675Z,120.01
2024-03-24T02:58:43.674Z,116.72
2024-03-24T02:59:43.713Z,120.35
2024-03-24T03:00:43.678Z,117.92
2024-03-24T03:01:43.691Z,118.01
2024-03-24T03:02:43.689Z,116.07
2024-03-24T03:03:43.753Z,116.59
2024-03-24T03:04:43.691Z,117.03
2024-03-24T03:05:43.686Z,117.01
2024-03-24T03:06:43.678Z,116.32
2024-03-24T03:07:43.676Z,112.30
2024-03-24T03:08:43.679Z,112.38
2024-03-24T03:09:43.679Z,112.30
2024-03-24T03:10:43.692Z,113.18
2024-03-24T03:11:43.685Z,112.84
2024-03-24T03:12:43.688Z,115.25
2024-03-24T03:13:43.693Z,115.00
2024-03-24T03:14:43.698Z,114.63
2024-03-24T03:15:43.694Z,114.93
2024-03-24T03:16:43.694Z,115.92
2024-03-24T03:17:43.710Z,113.74
2024-03-24T03:18:43.700Z,117.82
2024-03-24T03:19:43.719Z,115.39
2024-03-24T03:20:43.701Z,117.33
2024-03-24T03:21:43.718Z,119.08
2024-03-24T03:22:43.703Z,116.11
2024-03-24T03:23:43.697Z,114.88
2024-03-24T03:24:43.695Z,117.16
2024-03-24T03:25:43.710Z,118.86
2024-03-24T03:26:43.714Z,116.71
2024-03-24T03:27:43.709Z,118.32
2024-03-24T03:28:43.701Z,116.73
2024-03-24T03:29:43.705Z,121.57
2024-03-24T03:30:43.711Z,119.02
2024-03-24T03:31:43.711Z,119.41
2024-03-24T03:32:43.720Z,119.54
2024-03-24T03:33:43.714Z,119.93
2024-03-24T03:34:43.721Z,120.61
2024-03-24T03:35:43.720Z,118.04
2024-03-24T03:36:43.728Z,116.47
2024-03-24T03:37:43.776Z,121.07
2024-03-24T03:38:43.722Z,118.41
2024-03-24T03:39:43.756Z,119.94
2024-03-24T03:40:43.714Z,119.38
2024-03-24T03:41:43.720Z,118.76
2024-03-24T03:42:43.727Z,121.32
2024-03-24T03:43:43.715Z,120.65
2024-03-24T03:44:43.736Z,120.19
2024-03-24T03:45:43.722Z,117.88
2024-03-24T03:46:43.724Z,117.79
2024-03-24T03:47:43.715Z,119.95
2024-03-24T03:48:43.716Z,117.76
2024-03-24T03:49:43.720Z,120.14
2024-03-24T03:50:43.716Z,123.19
2024-03-24T03:51:43.728Z,118.48
2024-03-24T03:52:43.734Z,118.92
2024-03-24T03:53:43.734Z,118.30
2024-03-24T03:54:43.736Z,117.04
2024-03-24T03:55:43.756Z,117.42
2024-03-24T03:56:43.829Z,117.58
2024-03-24T03:57:43.821Z,115.25
2024-03-24T03:58:43.843Z,116.88
2024-03-24T03:59:43.867Z,117.33
2024-03-24T04:00:43.866Z,117.07
2024-03-24T04:01:43.914Z,116.58
2024-03-24T04:02:43.895Z,117.68
2024-03-24T04:03:43.940Z,116.45
2024-03-24T04:04:43.958Z,115.14
2024-03-24T04:05:43.979Z,114.89
2024-03-24T04:06:44.033Z,116.13
2024-03-24T04:07:44.046Z,115.68
2024-03-24T04:08:44.032Z,113.41
2024-03-24T04:09:44.051Z,113.38
2024-03-24T04:10:44.118Z,114.48
2024-03-24T04:11:44.198Z,113.77
2024-03-24T04:12:44.205Z,110.89
2024-03-24T04:13:44.258Z,114.74
2024-03-24T04:14:44.246Z,114.88
2024-03-24T04:15:44.276Z,114.55
2024-03-24T04:16:44.283Z,113.03
2024-03-24T04:17:44.305Z,112.10
2024-03-24T04:18:44.318Z,113.85
2024-03-24T04:19:44.329Z,114.26
2024-03-24T04:20:44.381Z,115.92
2024-03-24T04:21:44.428Z,112.52
2024-03-24T04:22:44.471Z,113.29
2024-03-24T04:23:44.506Z,112.89
2024-03-24T04:24:44.555Z,113.56
2024-03-24T04:25:44.569Z,114.60
2024-03-24T04:26:44.615Z,115.16
2024-03-24T04:27:44.658Z,114.25
2024-03-24T04:28:44.683Z,114.49
2024-03-24T04:29:44.720Z,112.83
2024-03-24T04:30:44.716Z,114.69
2024-03-24T04:31:44.742Z,113.58
2024-03-24T04:32:44.778Z,115.30
2024-03-24T04:33:44.813Z,115.88
2024-03-24T04:34:44.852Z,117.37
2024-03-24T04:35:44.879Z,117.37
2024-03-24T04:36:44.930Z,116.87
2024-03-24T04:37:44.973Z,116.86
2024-03-24T04:38:44.960Z,117.73
2024-03-24T04:39:44.985Z,114.91
2024-03-24T04:40:45.015Z,118.14
2024-03-24T04:41:45.031Z,119.86
2024-03-24T04:42:45.074Z,119.45
2024-03-24T04:43:52.354Z,50.00
2024-03-24T04:44:52.356Z,50.00
2024-03-24T04:45:52.361Z,50.00
2024-03-24T04:46:52.382Z,50.00
2024-03-24T04:47:52.363Z,50.00
2024-03-24T04:48:52.365Z,51.28
2024-03-24T04:49:52.366Z,51.66
2024-03-24T04:50:52.363Z,51.18
2024-03-24T04:51:52.367Z,53.20
2024-03-24T04:52:52.359Z,50.80
2024-03-24T04:53:52.369Z,51.56
2024-03-24T04:54:52.367Z,52.69
2024-03-24T04:55:52.371Z,53.47
2024-03-24T04:56:52.378Z,51.96
2024-03-24T04:57:52.381Z,52.54
2024-03-24T04:58:52.381Z,50.00
2024-03-24T04:59:52.376Z,54.27
2024-03-24T05:00:52.386Z,50.98
2024-03-24T05:01:52.395Z,52.22
2024-03-24T05:02:52.404Z,51.75
2024-03-24T05:03:52.397Z,51.08
2024-03-24T05:04:52.382Z,55.46
2024-03-24T05:05:52.388Z,53.89
2024-03-24T05:06:52.386Z,53.16
2024-03-24T05:07:52.393Z,53.17
2024-03-24T05:08:52.394Z,52.65
2024-03-24T05:09:52.393Z,55.36
2024-03-24T05:10:52.393Z,52.20
2024-03-24T05:11:52.410Z,52.12
2024-03-24T05:12:52.402Z,54.61
2024-03-24T05:13:52.405Z,53.38
2024-03-24T05:14:52.392Z,52.77
2024-03-24T05:15:52.399Z,52.73
2024-03-24T05:16:52.403Z,54.94
2024-03-24T05:17:52.423Z,55.78
2024-03-24T05:18:52.401Z,58.48
2024-03-24T05:19:52.402Z,60.10
2024-03-24T05:20:52.405Z,59.19
2024-03-24T05:21:52.439Z,62.79
2024-03-24T05:22:52.453Z,58.86
2024-03-24T05:23:52.447Z,62.52
2024-03-24T05:24:52.480Z,62.17
2024-03-24T05:25:52.487Z,61.16
2024-03-24T05:26:52.528Z,61.42
2024-03-24T05:27:52.525Z,60.63
2024-03-24T05:28:55.877Z,62.77
2024-03-24T05:29:52.556Z,66.54
2024-03-24T05:30:52.567Z,66.10
2024-03-24T05:31:52.565Z,66.50
2024-03-24T05:32:52.553Z,64.33
2024-03-24T05:33:52.565Z,66.03
2024-03-24T05:34:52.577Z,67.82
2024-03-24T05:35:52.570Z,68.55
2024-03-24T05:36:52.563Z,68.25
2024-03-24T05:37:52.564Z,70.04
2024-03-24T05:38:52.584Z,66.77
2024-03-24T05:39:52.604Z,66.45
2024-03-24T05:40:52.581Z,66.86
2024-03-24T05:41:52.579Z,70.65
2024-03-24T05:42:52.578Z,66.74
2024-03-24T05:43:52.680Z,68.50
2024-03-24T05:44:52.574Z,66.45
2024-03-24T05:45:52.576Z,69.78
2024-03-24T05:46:52.604Z,66.83
2024-03-24T05:47:52.580Z,67.84
2024-03-24T05:48:52.581Z,67.34
2024-03-24T05:49:52.625Z,67.96
2024-03-24T05:50:52.599Z,67.34
2024-03-24T05:51:52.583Z,67.03
2024-03-24T05:52:52.587Z,68.37
2024-03-24T05:53:52.588Z,67.55
2024-03-24T05:54:52.592Z,68.62
2024-03-24T05:55:52.582Z,67.76
2024-03-24T05:56:52.594Z,65.49
2024-03-24T05:57:52.592Z,67.73
2024-03-24T05:58:52.591Z,67.73
2024-03-24T05:59:52.607Z,66.81
2024-03-24T06:00:52.595Z,67.08
2024-03-24T06:01:52.604Z,65.46
2024-03-24T06:02:52.591Z,65.48
2024-03-24T06:03:52.610Z,65.49
2024-03-24T06:04:52.610Z,67.79
2024-03-24T06:05:52.593Z,67.12
2024-03-24T06:06:52.611Z,65.19
2024-03-24T06:07:52.595Z,66.60
2024-03-24T06:08:52.594Z,64.80
2024-03-24T06:09:52.632Z,63.85
2024-03-24T06:10:52.630Z,64.67
2024-03-24T06:11:52.604Z,66.02
2024-03-24T06:12:52.597Z,64.93
2024-03-24T06:13:52.601Z,65.38
2024-03-24T06:14:52.592Z,65.95
2024-03-24T06:15:52.610Z,62.94
2024-03-24T06:16:52.609Z,63.52
2024-03-24T06:17:52.620Z,62.49
2024-03-24T06:18:52.593Z,62.91
2024-03-24T06:19:52.608Z,62.52
2024-03-24T06:20:52.600Z,60.45
2024-03-24T06:21:52.604Z,61.39
2024-03-24T06:22:52.630Z,60.42
2024-03-24T06:23:52.608Z,62.82
2024-03-24T06:24:52.631Z,61.23
2024-03-24T06:25:52.616Z,61.16
2024-03-24T06:26:52.619Z,61.25
2024-03-24T06:27:52.610Z,59.49
2024-03-24T06:28:52.613Z,59.14
2024-03-24T06:29:52.633Z,59.49
2024-03-24T06:30:52.625Z,60.20
2024-03-24T06:31:52.622Z,59.60
2024-03-24T06:32:52.615Z,56.86
2024-03-24T06:33:52.615Z,54.79
2024-03-24T06:34:52.629Z,57.12
2024-03-24T06:35:52.617Z,58.34
2024-03-24T06:36:52.632Z,58.63
2024-03-24T06:37:52.628Z,59.37
2024-03-24T06:38:52.622Z,54.41
2024-03-24T06:39:52.623Z,57.96
2024-03-24T06:40:52.633Z,57.74
2024-03-24T06:41:52.695Z,58.78
2024-03-24T06:42:52.734Z,54.74
2024-03-24T06:43:52.760Z,58.05
2024-03-24T06:44:52.807Z,58.58
2024-03-24T06:45:53.105Z,55.38
2024-03-24T06:46:52.895Z,55.60
2024-03-24T06:47:52.900Z,56.52
2024-03-24T06:48:52.913Z,56.01
2024-03-24T06:49:52.949Z,60.12
2024-03-24T06:50:52.983Z,59.57
2024-03-24T06:51:53.004Z,56.14
2024-03-24T06:52:53.031Z,56.16
2024-03-24T06:53:53.041Z,59.01
2024-03-24T06:54:53.074Z,59.00
2024-03-24T06:55:53.114Z,59.15
2024-03-24T06:56:53.158Z,58.67
2024-03-24T06:57:53.176Z,57.36
2024-03-24T06:58:53.194Z,58.57
2024-03-24T06:59:53.227Z,58.26
2024-03-24T07:00:53.264Z,59.56
2024-03-24T07:01:53.282Z,58.80
2024-03-24T07:02:53.304Z,57.76
2024-03-24T07:03:53.316Z,60.32
2024-03-24T07:04:53.348Z,59.48
2024-03-24T07:05:53.355Z,58.58
2024-03-24T07:06:53.395Z,57.94
2024-03-24T07:07:53.397Z,56.69
2024-03-24T07:08:53.427Z,54.04
2024-03-24T07:09:53.486Z,57.72
2024-03-24T07:10:53.455Z,55.45
2024-03-24T07:11:53.480Z,57.62
2024-03-24T07:12:53.493Z,55.12
2024-03-24T07:13:53.510Z,54.77
2024-03-24T07:14:53.525Z,55.25
2024-03-24T07:15:53.903Z,54.27
2024-03-24T07:16:53.582Z,54.93
2024-03-24T07:17:53.589Z,54.19
2024-03-24T07:18:53.619Z,53.41
2024-03-24T07:19:53.662Z,53.58
2024-03-24T07:20:53.667Z,53.88
2024-03-24T07:21:53.688Z,52.42
2024-03-24T07:22:53.728Z,53.70
2024-03-24T07:23:53.734Z,51.93
2024-03-24T07:24:53.749Z,52.66
2024-03-24T07:25:53.764Z,51.04
2024-03-24T07:26:53.794Z,53.32
2024-03-24T07:27:53.842Z,52.31
2024-03-24T07:28:53.902Z,52.46
2024-03-24T07:29:53.945Z,53.85
2024-03-24T07:30:54.011Z,53.69
2024-03-24T07:31:54.072Z,51.05
2024-03-24T07:32:54.042Z,50.00
2024-03-24T07:33:54.062Z,52.70
2024-03-24T07:34:54.086Z,50.00
2024-03-24T07:35:54.106Z,50.38
2024-03-24T07:36:54.177Z,50.27
2024-03-24T07:37:54.206Z,52.86
2024-03-24T07:38:54.229Z,50.87
2024-03-24T07:39:54.275Z,51.31
2024-03-24T07:40:54.298Z,52.32
2024-03-24T07:41:54.335Z,53.04
2024-03-24T07:42:54.362Z,51.90
2024-03-24T07:43:54.381Z,52.05
2024-03-24T07:44:54.425Z,53.92
2024-03-24T07:45:54.461Z,52.01
2024-03-24T07:46:54.485Z,52.63
2024-03-24T07:47:54.508Z,51.59
2024-03-24T07:48:54.554Z,51.70
2024-03-24T07:49:54.611Z,53.55
2024-03-24T07:50:54.632Z,52.04
2024-03-24T07:51:54.738Z,53.73
2024-03-24T07:52:57.745Z,50.68
2024-03-24T07:53:54.736Z,52.88
2024-03-24T07:54:54.735Z,54.97
2024-03-24T07:55:54.735Z,55.22
2024-03-24T07:56:54.746Z,53.32
2024-03-24T07:57:54.762Z,52.27
2024-03-24T07:58:54.739Z,56.60
2024-03-24T07:59:54.745Z,54.42
2024-03-24T08:00:54.765Z,53.48
2024-03-24T08:01:54.751Z,54.14
2024-03-24T08:02:54.756Z,53.95
2024-03-24T08:03:54.747Z,53.75
2024-03-24T08:04:54.745Z,54.13
2024-03-24T08:05:54.746Z,57.32
2024-03-24T08:06:54.751Z,55.51
2024-03-24T08:07:56.493Z,55.79
2024-03-24T08:08:54.749Z,56.88
2024-03-24T08:09:54.750Z,56.55
2024-03-24T08:10:54.773Z,57.18
2024-03-24T08:11:54.761Z,57.17
2024-03-24T08:12:54.754Z,56.40
2024-03-24T08:13:54.759Z,58.94
2024-03-24T08:14:54.762Z,59.09
2024-03-24T08:15:54.766Z,60.29
2024-03-24T08:16:54.780Z,58.29
2024-03-24T08:17:54.772Z,57.19
2024-03-24T08:18:54.772Z,58.64
2024-03-24T08:19:54.791Z,58.92
2024-03-24T08:20:57.795Z,60.95
2024-03-24T08:21:54.795Z,61.39
2024-03-24T08:22:54.784Z,61.42
2024-03-24T08:23:54.774Z,61.99
2024-03-24T08:24:54.776Z,60.63
2024-03-24T08:25:54.777Z,62.14
2024-03-24T08:26:54.839Z,59.81
2024-03-24T08:27:54.790Z,63.84
2024-03-24T08:28:54.784Z,58.58
2024-03-24T08:29:54.786Z,60.11
2024-03-24T08:30:54.784Z,59.45
2024-03-24T08:31:54.817Z,60.25
2024-03-24T08:32:54.789Z,56.83
2024-03-24T08:33:54.796Z,57.59
2024-03-24T08:34:54.787Z,56.05
2024-03-24T08:35:54.797Z,52.95
2024-03-24T08:36:54.797Z,54.24
2024-03-24T08:37:54.791Z,54.96
2024-03-24T08:38:54.798Z,52.96
2024-03-24T08:39:54.804Z,54.44
2024-03-24T08:40:54.819Z,53.26
2024-03-24T08:41:54.804Z,50.06
2024-03-24T08:42:54.803Z,51.25
2024-03-24T08:43:54.807Z,50.98
2024-03-24T08:44:54.809Z,52.55
2024-03-24T08:45:54.815Z,52.25
2024-03-24T08:46:54.848Z,51.33
2024-03-24T08:47:54.813Z,54.08
2024-03-24T08:48:54.815Z,52.15
2024-03-24T08:49:54.816Z,54.26
2024-03-24T08:50:54.834Z,50.52
2024-03-24T08:51:54.820Z,56.00
2024-03-24T08:52:54.816Z,52.98
2024-03-24T08:53:54.818Z,53.88
2024-03-24T08:54:54.816Z,51.83
2024-03-24T08:55:55.871Z,51.15
2024-03-24T08:56:54.823Z,51.67
2024-03-24T08:57:54.826Z,52.02
2024-03-24T08:58:54.830Z,52.95
2024-03-24T08:59:54.830Z,52.17
2024-03-24T09:00:54.840Z,52.10
2024-03-24T09:01:54.833Z,53.02
2024-03-24T09:02:54.845Z,50.92
2024-03-24T09:03:54.836Z,50.56
2024-03-24T09:04:54.832Z,53.67
2024-03-24T09:05:54.828Z,53.19
2024-03-24T09:06:54.844Z,52.06
2024-03-24T09:07:54.846Z,52.71
2024-03-24T09:08:54.836Z,53.73
2024-03-24T09:09:54.835Z,53.13
2024-03-24T09:10:54.837Z,50.20
2024-03-24T09:11:54.835Z,52.16
2024-03-24T09:12:54.842Z,53.28
2024-03-24T09:13:54.840Z,51.49
2024-03-24T09:14:54.841Z,53.62
2024-03-24T09:15:54.843Z,53.95
2024-03-24T09:16:54.854Z,53.14
2024-03-24T09:17:54.848Z,54.72
2024-03-24T09:18:54.862Z,56.48
2024-03-24T09:19:54.854Z,58.88
2024-03-24T09:20:54.851Z,56.24
2024-03-24T09:21:54.847Z,58.54
2024-03-24T09:22:54.885Z,58.65
2024-03-24T09:23:56.235Z,58.90
2024-03-24T09:24:54.857Z,58.19
2024-03-24T09:25:54.858Z,59.13
2024-03-24T09:26:54.874Z,61.35
2024-03-24T09:27:54.862Z,62.18
2024-03-24T09:28:54.866Z,61.25
2024-03-24T09:29:54.860Z,63.47
2024-03-24T09:30:54.870Z,62.94
2024-03-24T09:31:54.908Z,61.03
2024-03-24T09:32:54.958Z,61.75
2024-03-24T09:33:54.988Z,60.91
2024-03-24T09:34:58.863Z,63.33
2024-03-24T09:35:56.031Z,63.36
2024-03-24T09:36:55.036Z,62.63
2024-03-24T09:37:55.038Z,64.00
2024-03-24T09:38:55.040Z,64.02
2024-03-24T09:39:55.038Z,65.34
2024-03-24T09:40:55.035Z,61.43
2024-03-24T09:41:55.056Z,64.76
2024-03-24T09:42:55.046Z,62.65
2024-03-24T09:43:55.038Z,63.10
2024-03-24T09:44:55.032Z,67.23
2024-03-24T09:45:55.044Z,64.32
2024-03-24T09:46:55.042Z,67.37
2024-03-24T09:47:55.060Z,66.35
2024-03-24T09:48:55.089Z,68.45
2024-03-24T09:49:55.129Z,66.43
2024-03-24T09:50:55.186Z,70.83
2024-03-24T09:51:55.211Z,72.44
2024-03-24T09:52:55.272Z,71.66
2024-03-24T09:53:55.305Z,75.19
2024-03-24T09:54:55.352Z,74.81
2024-03-24T09:55:55.407Z,74.70
2024-03-24T09:56:56.104Z,75.77
2024-03-24T09:58:06.793Z,77.53
2024-03-24T09:58:56.510Z,72.45
2024-03-24T09:59:55.521Z,75.58
2024-03-24T10:00:55.514Z,72.99
2024-03-24T10:01:55.519Z,75.47
2024-03-24T10:02:55.527Z,73.91
2024-03-24T10:03:55.510Z,74.13
2024-03-24T10:04:55.518Z,71.84
2024-03-24T10:05:55.600Z,74.09
2024-03-24T10:06:55.518Z,76.88
2024-03-24T10:07:55.526Z,75.12
2024-03-24T10:08:55.520Z,75.09
2024-03-24T10:09:55.527Z,78.17
2024-03-24T10:10:55.530Z,73.55
2024-03-24T10:11:55.522Z,75.72
2024-03-24T10:12:55.526Z,73.11
2024-03-24T10:13:55.549Z,73.96
2024-03-24T10:14:55.582Z,73.57
2024-03-24T10:15:55.608Z,72.33
2024-03-24T10:16:55.644Z,73.72
2024-03-24T10:17:55.671Z,74.86
2024-03-24T10:18:55.691Z,78.15
2024-03-24T10:19:55.715Z,78.63
2024-03-24T10:20:55.776Z,77.15
2024-03-24T10:21:55.810Z,77.10
2024-03-24T10:22:55.860Z,80.42
2024-03-24T10:23:55.887Z,82.53
2024-03-24T10:24:55.919Z,86.76
2024-03-24T10:25:55.943Z,88.23
2024-03-24T10:26:55.967Z,85.31
2024-03-24T10:27:55.991Z,85.42
2024-03-24T10:28:56.018Z,85.88
2024-03-24T10:29:56.015Z,87.90
2024-03-24T10:30:56.030Z,87.88
2024-03-24T10:31:56.083Z,89.58
2024-03-24T10:32:56.099Z,91.19
2024-03-24T10:33:56.159Z,91.17
2024-03-24T10:34:56.174Z,91.27
2024-03-24T10:35:56.207Z,84.65
2024-03-24T10:36:56.265Z,81.00
2024-03-24T10:37:56.307Z,79.10
2024-03-24T10:38:56.339Z,83.18
2024-03-24T10:39:56.336Z,83.67
2024-03-24T10:40:56.368Z,84.53
2024-03-24T10:41:56.401Z,82.77
2024-03-24T10:42:56.455Z,82.66
2024-03-24T10:43:56.452Z,78.68
2024-03-24T10:44:56.509Z,74.43
2024-03-24T10:45:56.543Z,68.42
2024-03-24T10:46:56.554Z,62.09
2024-03-24T10:47:56.572Z,59.17
2024-03-24T10:48:56.617Z,55.53
2024-03-24T10:49:56.642Z,52.14
2024-03-24T10:50:56.678Z,50.76
2024-03-24T10:51:56.700Z,50.09
2024-03-24T10:52:58.732Z,50.00
2024-03-24T10:53:56.760Z,50.67
2024-03-24T10:54:56.786Z,51.85
2024-03-24T10:55:56.812Z,50.00
2024-03-24T10:56:56.849Z,50.94
2024-03-24T10:57:56.869Z,52.19
2024-03-24T10:58:56.878Z,54.16
2024-03-24T10:59:56.930Z,58.88
2024-03-24T11:00:56.968Z,58.02
2024-03-24T11:01:56.990Z,59.70
2024-03-24T11:02:57.014Z,63.49
2024-03-24T11:03:57.039Z,66.77
2024-03-24T11:04:57.066Z,68.96
2024-03-24T11:05:57.080Z,70.42
2024-03-24T11:06:57.139Z,73.98
2024-03-24T11:07:57.186Z,74.79
2024-03-24T11:08:57.226Z,79.19
2024-03-24T11:09:57.260Z,75.41
2024-03-24T11:10:57.313Z,76.74
2024-03-24T11:11:57.323Z,77.59
2024-03-24T11:12:57.369Z,78.94
2024-03-24T11:13:57.394Z,78.75
2024-03-24T11:14:57.459Z,81.88
2024-03-24T11:15:57.494Z,84.63
2024-03-24T11:16:57.534Z,85.09
2024-03-24T11:17:57.580Z,87.63
2024-03-24T11:18:57.617Z,87.21
2024-03-24T11:19:57.649Z,85.81
2024-03-24T11:20:57.684Z,85.03
2024-03-24T11:21:57.749Z,83.10
2024-03-24T11:22:57.767Z,82.03
2024-03-24T11:23:57.798Z,82.31
2024-03-24T11:24:57.826Z,83.12
2024-03-24T11:25:57.897Z,84.99
2024-03-24T11:26:57.917Z,85.04
2024-03-24T11:27:57.964Z,83.94
2024-03-24T11:28:58.012Z,86.61
2024-03-24T11:29:58.071Z,83.58
2024-03-24T11:30:58.099Z,88.40
2024-03-24T11:31:58.148Z,88.38
2024-03-24T11:32:58.208Z,86.89
2024-03-24T11:33:58.244Z,89.10
2024-03-24T11:34:58.303Z,91.02
2024-03-24T11:35:58.321Z,87.11
2024-03-24T11:36:58.364Z,84.41
2024-03-24T11:37:58.383Z,81.26
2024-03-24T11:38:58.375Z,82.63
2024-03-24T11:39:58.410Z,81.26
2024-03-24T11:40:58.462Z,85.71
2024-03-24T11:41:58.504Z,84.62
2024-03-24T11:42:58.567Z,84.97
2024-03-24T11:43:58.610Z,86.96
2024-03-24T11:44:58.660Z,91.92
2024-03-24T11:45:58.707Z,92.66
2024-03-24T11:46:58.758Z,92.51
2024-03-24T11:47:58.779Z,93.45
2024-03-24T11:48:58.830Z,94.46
2024-03-24T11:49:58.886Z,92.85
2024-03-24T11:50:58.933Z,94.92
2024-03-24T11:51:58.997Z,93.99
2024-03-24T11:52:59.052Z,96.12
2024-03-24T11:53:59.100Z,94.91
2024-03-24T11:54:59.165Z,97.30
2024-03-24T11:55:59.207Z,95.77
2024-03-24T11:56:59.260Z,95.92
2024-03-24T11:57:59.319Z,95.28
2024-03-24T11:58:59.366Z,96.37
2024-03-24T11:59:59.387Z,96.21
2024-03-24T12:01:00.163Z,94.42
2024-03-24T12:01:59.494Z,91.95
2024-03-24T12:02:59.549Z,95.73
2024-03-24T12:03:59.612Z,95.09
2024-03-24T12:04:59.684Z,96.34
2024-03-24T12:05:59.711Z,95.70
2024-03-24T12:06:59.766Z,98.02
2024-03-24T12:07:59.816Z,94.60
2024-03-24T12:08:59.856Z,92.41
2024-03-24T12:09:59.913Z,92.76
2024-03-24T12:10:59.948Z,89.38
2024-03-24T12:11:59.997Z,87.63
2024-03-24T12:13:00.055Z,84.38
2024-03-24T12:14:00.127Z,84.00
2024-03-24T12:15:00.190Z,86.19
2024-03-24T12:16:00.168Z,82.54
2024-03-24T12:17:00.187Z,83.70
2024-03-24T12:18:00.224Z,85.79
2024-03-24T12:19:00.291Z,88.36
2024-03-24T12:20:00.358Z,85.62
2024-03-24T12:21:00.384Z,79.56
2024-03-24T12:22:00.454Z,71.76
2024-03-24T12:23:00.485Z,75.98
2024-03-24T12:24:00.543Z,77.68
2024-03-24T12:25:00.599Z,82.40
2024-03-24T12:26:00.656Z,85.54
2024-03-24T12:27:00.706Z,88.69
2024-03-24T12:28:00.755Z,92.86
2024-03-24T12:29:00.803Z,89.00
2024-03-24T12:30:00.832Z,88.57
2024-03-24T12:31:00.866Z,95.72
2024-03-24T12:32:00.929Z,96.11
2024-03-24T12:33:00.973Z,99.73
2024-03-24T12:34:01.032Z,95.91
2024-03-24T12:35:01.054Z,96.25
2024-03-24T12:36:01.111Z,95.79
2024-03-24T12:37:01.127Z,94.27
2024-03-24T12:38:01.171Z,91.35
2024-03-24T12:39:01.165Z,87.31
2024-03-24T12:40:01.226Z,87.54
2024-03-24T12:41:01.245Z,81.55
2024-03-24T12:42:01.200Z,83.53
2024-03-24T12:43:01.243Z,83.45
2024-03-24T12:44:01.263Z,76.91